sensor_id;sensor_type;location;lat;lon;timestamp;P1;durP1;ratioP1;P2;durP2;ratioP2
18445;SDS011;9352;50.888;4.466;2023-05-07T00:00:30;10.32;;;4.85;;
18445;SDS011;9352;50.888;4.466;2023-05-07T00:03:00;8.57;;;4.00;;
18445;SDS011;9352;50.888;4.466;2023-05-07T00:05:27;11.80;;;4.30;;
18445;SDS011;9352;50.888;4.466;2023-05-07T00:07:54;7.53;;;4.22;;
18445;SDS011;9352;50.888;4.466;2023-05-07T00:10:21;9.48;;;3.80;;
18445;SDS011;9352;50.888;4.466;2023-05-07T00:12:48;6.95;;;4.00;;
18445;SDS011;9352;50.888;4.466;2023-05-07T00:15:14;7.90;;;4.00;;
18445;SDS011;9352;50.888;4.466;2023-05-07T00:17:41;10.05;;;3.78;;
18445;SDS011;9352;50.888;4.466;2023-05-07T00:20:10;11.07;;;4.10;;
18445;SDS011;9352;50.888;4.466;2023-05-07T00:22:38;10.55;;;4.50;;
18445;SDS011;9352;50.888;4.466;2023-05-07T00:25:05;7.15;;;4.22;;
18445;SDS011;9352;50.888;4.466;2023-05-07T00:27:32;12.93;;;4.53;;
18445;SDS011;9352;50.888;4.466;2023-05-07T00:29:59;6.75;;;4.78;;
18445;SDS011;9352;50.888;4.466;2023-05-07T00:32:26;10.38;;;4.30;;
18445;SDS011;9352;50.888;4.466;2023-05-07T00:34:53;47.05;;;22.90;;
18445;SDS011;9352;50.888;4.466;2023-05-07T00:37:22;13.20;;;5.82;;
18445;SDS011;9352;50.888;4.466;2023-05-07T00:39:48;9.60;;;4.50;;
18445;SDS011;9352;50.888;4.466;2023-05-07T00:42:15;10.68;;;4.78;;
18445;SDS011;9352;50.888;4.466;2023-05-07T00:44:43;9.18;;;4.43;;
18445;SDS011;9352;50.888;4.466;2023-05-07T00:47:10;9.30;;;4.72;;
18445;SDS011;9352;50.888;4.466;2023-05-07T00:49:38;18.63;;;4.97;;
18445;SDS011;9352;50.888;4.466;2023-05-07T00:52:07;9.27;;;4.85;;
18445;SDS011;9352;50.888;4.466;2023-05-07T00:54:38;9.20;;;4.90;;
18445;SDS011;9352;50.888;4.466;2023-05-07T00:57:07;11.85;;;5.20;;
18445;SDS011;9352;50.888;4.466;2023-05-07T00:59:36;10.45;;;5.15;;
18445;SDS011;9352;50.888;4.466;2023-05-07T01:02:03;8.77;;;4.93;;
18445;SDS011;9352;50.888;4.466;2023-05-07T01:04:30;10.57;;;5.22;;
18445;SDS011;9352;50.888;4.466;2023-05-07T01:06:56;7.55;;;5.13;;
18445;SDS011;9352;50.888;4.466;2023-05-07T01:09:24;12.50;;;5.43;;
18445;SDS011;9352;50.888;4.466;2023-05-07T01:11:53;11.88;;;5.18;;
18445;SDS011;9352;50.888;4.466;2023-05-07T01:14:22;10.88;;;4.97;;
18445;SDS011;9352;50.888;4.466;2023-05-07T01:16:50;8.57;;;4.97;;
18445;SDS011;9352;50.888;4.466;2023-05-07T01:19:18;13.32;;;5.43;;
18445;SDS011;9352;50.888;4.466;2023-05-07T01:21:46;12.18;;;5.38;;
18445;SDS011;9352;50.888;4.466;2023-05-07T01:24:15;10.60;;;5.75;;
18445;SDS011;9352;50.888;4.466;2023-05-07T01:26:42;10.43;;;5.32;;
18445;SDS011;9352;50.888;4.466;2023-05-07T01:29:10;12.35;;;5.57;;
18445;SDS011;9352;50.888;4.466;2023-05-07T01:31:37;15.50;;;6.07;;
18445;SDS011;9352;50.888;4.466;2023-05-07T01:34:05;17.02;;;6.63;;
18445;SDS011;9352;50.888;4.466;2023-05-07T01:36:34;13.32;;;6.35;;
18445;SDS011;9352;50.888;4.466;2023-05-07T01:39:05;9.40;;;6.18;;
18445;SDS011;9352;50.888;4.466;2023-05-07T01:41:34;11.20;;;5.80;;
18445;SDS011;9352;50.888;4.466;2023-05-07T01:44:01;15.00;;;6.07;;
18445;SDS011;9352;50.888;4.466;2023-05-07T01:46:30;12.18;;;5.50;;
18445;SDS011;9352;50.888;4.466;2023-05-07T01:48:58;13.30;;;6.40;;
18445;SDS011;9352;50.888;4.466;2023-05-07T01:51:25;12.82;;;6.55;;
18445;SDS011;9352;50.888;4.466;2023-05-07T01:53:52;9.68;;;6.30;;
18445;SDS011;9352;50.888;4.466;2023-05-07T01:56:19;17.63;;;7.47;;
18445;SDS011;9352;50.888;4.466;2023-05-07T01:58:48;15.88;;;6.80;;
18445;SDS011;9352;50.888;4.466;2023-05-07T02:01:16;20.45;;;6.40;;
18445;SDS011;9352;50.888;4.466;2023-05-07T02:03:43;11.15;;;6.13;;
18445;SDS011;9352;50.888;4.466;2023-05-07T02:06:10;15.20;;;6.38;;
18445;SDS011;9352;50.888;4.466;2023-05-07T02:08:37;10.40;;;6.15;;
18445;SDS011;9352;50.888;4.466;2023-05-07T02:11:04;12.48;;;5.90;;
18445;SDS011;9352;50.888;4.466;2023-05-07T02:13:31;14.43;;;6.40;;
18445;SDS011;9352;50.888;4.466;2023-05-07T02:16:00;10.40;;;6.18;;
18445;SDS011;9352;50.888;4.466;2023-05-07T02:18:27;9.13;;;5.75;;
18445;SDS011;9352;50.888;4.466;2023-05-07T02:20:54;17.38;;;6.05;;
18445;SDS011;9352;50.888;4.466;2023-05-07T02:23:21;9.75;;;5.68;;
18445;SDS011;9352;50.888;4.466;2023-05-07T02:25:48;13.68;;;5.70;;
18445;SDS011;9352;50.888;4.466;2023-05-07T02:28:15;15.40;;;5.80;;
18445;SDS011;9352;50.888;4.466;2023-05-07T02:30:42;13.70;;;6.20;;
18445;SDS011;9352;50.888;4.466;2023-05-07T02:33:10;11.20;;;6.03;;
18445;SDS011;9352;50.888;4.466;2023-05-07T02:35:38;12.52;;;6.00;;
18445;SDS011;9352;50.888;4.466;2023-05-07T02:38:05;10.57;;;6.20;;
18445;SDS011;9352;50.888;4.466;2023-05-07T02:40:32;11.85;;;5.80;;
18445;SDS011;9352;50.888;4.466;2023-05-07T02:43:03;15.30;;;6.03;;
18445;SDS011;9352;50.888;4.466;2023-05-07T02:45:30;12.55;;;5.72;;
18445;SDS011;9352;50.888;4.466;2023-05-07T02:47:57;8.48;;;5.50;;
18445;SDS011;9352;50.888;4.466;2023-05-07T02:50:25;11.60;;;6.13;;
18445;SDS011;9352;50.888;4.466;2023-05-07T02:52:52;12.40;;;6.40;;
18445;SDS011;9352;50.888;4.466;2023-05-07T02:55:19;11.38;;;5.78;;
18445;SDS011;9352;50.888;4.466;2023-05-07T02:57:46;16.95;;;6.35;;
18445;SDS011;9352;50.888;4.466;2023-05-07T03:00:13;15.23;;;6.45;;
18445;SDS011;9352;50.888;4.466;2023-05-07T03:02:43;16.92;;;6.07;;
18445;SDS011;9352;50.888;4.466;2023-05-07T03:05:10;12.57;;;5.38;;
18445;SDS011;9352;50.888;4.466;2023-05-07T03:07:39;12.70;;;6.20;;
18445;SDS011;9352;50.888;4.466;2023-05-07T03:10:06;11.35;;;5.75;;
18445;SDS011;9352;50.888;4.466;2023-05-07T03:12:33;13.73;;;6.05;;
18445;SDS011;9352;50.888;4.466;2023-05-07T03:15:00;12.63;;;5.88;;
18445;SDS011;9352;50.888;4.466;2023-05-07T03:17:27;15.82;;;6.30;;
18445;SDS011;9352;50.888;4.466;2023-05-07T03:19:54;14.90;;;6.00;;
18445;SDS011;9352;50.888;4.466;2023-05-07T03:22:21;13.50;;;5.70;;
18445;SDS011;9352;50.888;4.466;2023-05-07T03:24:49;25.50;;;6.57;;
18445;SDS011;9352;50.888;4.466;2023-05-07T03:27:16;20.52;;;6.65;;
18445;SDS011;9352;50.888;4.466;2023-05-07T03:29:43;14.55;;;5.90;;
18445;SDS011;9352;50.888;4.466;2023-05-07T03:32:10;12.90;;;5.38;;
18445;SDS011;9352;50.888;4.466;2023-05-07T03:34:37;14.95;;;5.47;;
18445;SDS011;9352;50.888;4.466;2023-05-07T03:37:04;11.60;;;5.40;;
18445;SDS011;9352;50.888;4.466;2023-05-07T03:39:30;10.43;;;5.78;;
18445;SDS011;9352;50.888;4.466;2023-05-07T03:41:59;9.32;;;5.28;;
18445;SDS011;9352;50.888;4.466;2023-05-07T03:44:26;14.68;;;5.82;;
18445;SDS011;9352;50.888;4.466;2023-05-07T03:46:53;11.55;;;5.57;;
18445;SDS011;9352;50.888;4.466;2023-05-07T03:49:20;13.35;;;5.95;;
18445;SDS011;9352;50.888;4.466;2023-05-07T03:51:47;13.95;;;5.32;;
18445;SDS011;9352;50.888;4.466;2023-05-07T03:54:14;13.77;;;5.82;;
18445;SDS011;9352;50.888;4.466;2023-05-07T03:56:41;13.30;;;6.18;;
18445;SDS011;9352;50.888;4.466;2023-05-07T03:59:09;11.98;;;5.82;;
18445;SDS011;9352;50.888;4.466;2023-05-07T04:01:36;12.18;;;6.25;;
18445;SDS011;9352;50.888;4.466;2023-05-07T04:04:03;14.52;;;6.43;;
18445;SDS011;9352;50.888;4.466;2023-05-07T04:06:30;15.90;;;5.88;;
18445;SDS011;9352;50.888;4.466;2023-05-07T04:08:57;12.60;;;5.47;;
18445;SDS011;9352;50.888;4.466;2023-05-07T04:11:24;11.63;;;5.30;;
18445;SDS011;9352;50.888;4.466;2023-05-07T04:13:51;11.95;;;5.68;;
18445;SDS011;9352;50.888;4.466;2023-05-07T04:16:19;14.55;;;5.40;;
18445;SDS011;9352;50.888;4.466;2023-05-07T04:18:46;9.70;;;4.80;;
18445;SDS011;9352;50.888;4.466;2023-05-07T04:21:13;9.43;;;5.63;;
18445;SDS011;9352;50.888;4.466;2023-05-07T04:23:41;11.50;;;5.10;;
18445;SDS011;9352;50.888;4.466;2023-05-07T04:26:08;15.63;;;5.30;;
18445;SDS011;9352;50.888;4.466;2023-05-07T04:28:35;16.60;;;5.40;;
18445;SDS011;9352;50.888;4.466;2023-05-07T04:31:02;14.00;;;5.97;;
18445;SDS011;9352;50.888;4.466;2023-05-07T04:33:30;14.48;;;6.38;;
18445;SDS011;9352;50.888;4.466;2023-05-07T04:35:58;12.95;;;5.80;;
18445;SDS011;9352;50.888;4.466;2023-05-07T04:38:27;14.40;;;5.95;;
18445;SDS011;9352;50.888;4.466;2023-05-07T04:40:54;8.77;;;5.25;;
18445;SDS011;9352;50.888;4.466;2023-05-07T04:43:22;12.25;;;5.40;;
18445;SDS011;9352;50.888;4.466;2023-05-07T04:45:49;14.07;;;5.35;;
18445;SDS011;9352;50.888;4.466;2023-05-07T04:48:17;13.23;;;5.70;;
18445;SDS011;9352;50.888;4.466;2023-05-07T04:50:48;15.75;;;5.68;;
18445;SDS011;9352;50.888;4.466;2023-05-07T04:53:15;15.73;;;5.50;;
18445;SDS011;9352;50.888;4.466;2023-05-07T04:55:42;16.33;;;6.03;;
18445;SDS011;9352;50.888;4.466;2023-05-07T04:58:10;15.25;;;5.78;;
18445;SDS011;9352;50.888;4.466;2023-05-07T05:00:36;15.02;;;5.45;;
18445;SDS011;9352;50.888;4.466;2023-05-07T05:03:04;11.20;;;5.82;;
18445;SDS011;9352;50.888;4.466;2023-05-07T05:05:31;10.77;;;5.15;;
18445;SDS011;9352;50.888;4.466;2023-05-07T05:07:59;8.13;;;5.00;;
18445;SDS011;9352;50.888;4.466;2023-05-07T05:10:26;12.98;;;5.68;;
18445;SDS011;9352;50.888;4.466;2023-05-07T05:12:53;15.05;;;5.95;;
18445;SDS011;9352;50.888;4.466;2023-05-07T05:15:20;16.00;;;5.30;;
18445;SDS011;9352;50.888;4.466;2023-05-07T05:17:47;12.23;;;5.90;;
18445;SDS011;9352;50.888;4.466;2023-05-07T05:20:14;13.30;;;5.80;;
18445;SDS011;9352;50.888;4.466;2023-05-07T05:22:41;9.68;;;5.53;;
18445;SDS011;9352;50.888;4.466;2023-05-07T05:25:09;17.67;;;6.55;;
18445;SDS011;9352;50.888;4.466;2023-05-07T05:27:36;14.63;;;5.97;;
18445;SDS011;9352;50.888;4.466;2023-05-07T05:30:03;16.10;;;5.93;;
18445;SDS011;9352;50.888;4.466;2023-05-07T05:32:31;8.57;;;5.18;;
18445;SDS011;9352;50.888;4.466;2023-05-07T05:34:58;17.60;;;5.93;;
18445;SDS011;9352;50.888;4.466;2023-05-07T05:37:25;11.63;;;5.75;;
18445;SDS011;9352;50.888;4.466;2023-05-07T05:39:52;11.45;;;4.80;;
18445;SDS011;9352;50.888;4.466;2023-05-07T05:42:21;18.25;;;6.25;;
18445;SDS011;9352;50.888;4.466;2023-05-07T05:44:48;13.65;;;5.05;;
18445;SDS011;9352;50.888;4.466;2023-05-07T05:47:15;15.00;;;5.90;;
18445;SDS011;9352;50.888;4.466;2023-05-07T05:49:42;12.63;;;5.20;;
18445;SDS011;9352;50.888;4.466;2023-05-07T05:52:09;10.07;;;4.95;;
18445;SDS011;9352;50.888;4.466;2023-05-07T05:54:38;11.05;;;5.15;;
18445;SDS011;9352;50.888;4.466;2023-05-07T05:57:04;13.60;;;5.95;;
18445;SDS011;9352;50.888;4.466;2023-05-07T05:59:33;9.73;;;5.85;;
18445;SDS011;9352;50.888;4.466;2023-05-07T06:02:00;12.00;;;5.72;;
18445;SDS011;9352;50.888;4.466;2023-05-07T06:04:26;12.30;;;5.75;;
18445;SDS011;9352;50.888;4.466;2023-05-07T06:06:53;8.70;;;5.07;;
18445;SDS011;9352;50.888;4.466;2023-05-07T06:09:21;12.95;;;5.20;;
18445;SDS011;9352;50.888;4.466;2023-05-07T06:11:48;12.13;;;4.95;;
18445;SDS011;9352;50.888;4.466;2023-05-07T06:14:15;15.90;;;5.97;;
18445;SDS011;9352;50.888;4.466;2023-05-07T06:16:43;12.38;;;6.55;;
18445;SDS011;9352;50.888;4.466;2023-05-07T06:19:10;18.17;;;6.32;;
18445;SDS011;9352;50.888;4.466;2023-05-07T06:21:38;11.15;;;5.65;;
18445;SDS011;9352;50.888;4.466;2023-05-07T06:24:05;13.25;;;6.25;;
18445;SDS011;9352;50.888;4.466;2023-05-07T06:26:32;13.02;;;5.70;;
18445;SDS011;9352;50.888;4.466;2023-05-07T06:28:59;11.20;;;5.28;;
18445;SDS011;9352;50.888;4.466;2023-05-07T06:31:29;8.38;;;5.05;;
18445;SDS011;9352;50.888;4.466;2023-05-07T06:33:58;15.20;;;5.22;;
18445;SDS011;9352;50.888;4.466;2023-05-07T06:36:25;9.82;;;4.55;;
18445;SDS011;9352;50.888;4.466;2023-05-07T06:38:52;8.70;;;4.53;;
18445;SDS011;9352;50.888;4.466;2023-05-07T06:41:19;12.25;;;3.95;;
18445;SDS011;9352;50.888;4.466;2023-05-07T06:43:46;10.73;;;3.97;;
18445;SDS011;9352;50.888;4.466;2023-05-07T06:46:13;8.10;;;3.50;;
18445;SDS011;9352;50.888;4.466;2023-05-07T06:48:40;8.70;;;3.78;;
18445;SDS011;9352;50.888;4.466;2023-05-07T06:51:08;16.77;;;3.67;;
18445;SDS011;9352;50.888;4.466;2023-05-07T06:53:35;10.90;;;3.00;;
18445;SDS011;9352;50.888;4.466;2023-05-07T06:56:02;7.82;;;3.47;;
18445;SDS011;9352;50.888;4.466;2023-05-07T06:58:29;11.45;;;3.30;;
18445;SDS011;9352;50.888;4.466;2023-05-07T07:00:56;8.77;;;3.33;;
18445;SDS011;9352;50.888;4.466;2023-05-07T07:03:23;8.00;;;3.50;;
18445;SDS011;9352;50.888;4.466;2023-05-07T07:05:51;10.10;;;3.60;;
18445;SDS011;9352;50.888;4.466;2023-05-07T07:08:19;8.95;;;3.20;;
18445;SDS011;9352;50.888;4.466;2023-05-07T07:10:47;7.30;;;3.20;;
18445;SDS011;9352;50.888;4.466;2023-05-07T07:13:14;11.30;;;3.88;;
18445;SDS011;9352;50.888;4.466;2023-05-07T07:15:41;8.85;;;3.33;;
18445;SDS011;9352;50.888;4.466;2023-05-07T07:18:08;7.43;;;3.58;;
18445;SDS011;9352;50.888;4.466;2023-05-07T07:20:35;7.03;;;3.17;;
18445;SDS011;9352;50.888;4.466;2023-05-07T07:23:02;9.75;;;3.65;;
18445;SDS011;9352;50.888;4.466;2023-05-07T07:25:30;6.70;;;3.25;;
18445;SDS011;9352;50.888;4.466;2023-05-07T07:27:57;6.28;;;2.97;;
18445;SDS011;9352;50.888;4.466;2023-05-07T07:30:24;8.38;;;2.92;;
18445;SDS011;9352;50.888;4.466;2023-05-07T07:32:52;9.32;;;3.13;;
18445;SDS011;9352;50.888;4.466;2023-05-07T07:35:19;6.97;;;3.15;;
18445;SDS011;9352;50.888;4.466;2023-05-07T07:37:46;12.55;;;3.22;;
18445;SDS011;9352;50.888;4.466;2023-05-07T07:40:14;12.90;;;3.75;;
18445;SDS011;9352;50.888;4.466;2023-05-07T07:42:43;9.88;;;3.60;;
18445;SDS011;9352;50.888;4.466;2023-05-07T07:45:10;8.88;;;3.80;;
18445;SDS011;9352;50.888;4.466;2023-05-07T07:47:37;10.48;;;3.90;;
18445;SDS011;9352;50.888;4.466;2023-05-07T07:50:05;9.70;;;4.90;;
18445;SDS011;9352;50.888;4.466;2023-05-07T07:52:32;11.57;;;4.30;;
18445;SDS011;9352;50.888;4.466;2023-05-07T07:54:59;11.35;;;4.85;;
18445;SDS011;9352;50.888;4.466;2023-05-07T07:57:26;10.40;;;4.80;;
18445;SDS011;9352;50.888;4.466;2023-05-07T07:59:54;12.82;;;5.10;;
18445;SDS011;9352;50.888;4.466;2023-05-07T08:02:21;7.15;;;4.82;;
18445;SDS011;9352;50.888;4.466;2023-05-07T08:04:48;11.23;;;4.80;;
18445;SDS011;9352;50.888;4.466;2023-05-07T08:07:15;14.10;;;5.05;;
18445;SDS011;9352;50.888;4.466;2023-05-07T08:09:43;12.38;;;5.90;;
18445;SDS011;9352;50.888;4.466;2023-05-07T08:12:10;10.38;;;5.28;;
18445;SDS011;9352;50.888;4.466;2023-05-07T08:14:37;7.63;;;4.63;;
18445;SDS011;9352;50.888;4.466;2023-05-07T08:17:06;8.65;;;4.55;;
18445;SDS011;9352;50.888;4.466;2023-05-07T08:19:34;10.50;;;5.22;;
18445;SDS011;9352;50.888;4.466;2023-05-07T08:22:02;7.63;;;4.55;;
18445;SDS011;9352;50.888;4.466;2023-05-07T08:24:31;12.90;;;4.55;;
18445;SDS011;9352;50.888;4.466;2023-05-07T08:26:59;10.50;;;4.05;;
18445;SDS011;9352;50.888;4.466;2023-05-07T08:29:26;9.48;;;4.00;;
18445;SDS011;9352;50.888;4.466;2023-05-07T08:31:53;9.02;;;4.18;;
18445;SDS011;9352;50.888;4.466;2023-05-07T08:34:22;8.65;;;4.18;;
18445;SDS011;9352;50.888;4.466;2023-05-07T08:36:49;8.57;;;4.20;;
18445;SDS011;9352;50.888;4.466;2023-05-07T08:39:16;7.30;;;4.20;;
18445;SDS011;9352;50.888;4.466;2023-05-07T08:41:43;11.93;;;4.00;;
18445;SDS011;9352;50.888;4.466;2023-05-07T08:44:12;8.45;;;3.55;;
18445;SDS011;9352;50.888;4.466;2023-05-07T08:46:40;9.20;;;3.67;;
18445;SDS011;9352;50.888;4.466;2023-05-07T08:49:08;10.27;;;4.38;;
18445;SDS011;9352;50.888;4.466;2023-05-07T08:51:36;15.25;;;4.65;;
18445;SDS011;9352;50.888;4.466;2023-05-07T08:54:04;8.93;;;3.88;;
18445;SDS011;9352;50.888;4.466;2023-05-07T08:56:32;5.55;;;3.63;;
18445;SDS011;9352;50.888;4.466;2023-05-07T08:58:59;13.93;;;4.25;;
18445;SDS011;9352;50.888;4.466;2023-05-07T09:01:26;10.70;;;4.20;;
18445;SDS011;9352;50.888;4.466;2023-05-07T09:03:53;10.52;;;4.20;;
18445;SDS011;9352;50.888;4.466;2023-05-07T09:06:20;8.98;;;3.72;;
18445;SDS011;9352;50.888;4.466;2023-05-07T09:08:52;6.40;;;3.80;;
18445;SDS011;9352;50.888;4.466;2023-05-07T09:11:20;7.90;;;3.70;;
18445;SDS011;9352;50.888;4.466;2023-05-07T09:13:48;7.45;;;3.45;;
18445;SDS011;9352;50.888;4.466;2023-05-07T09:16:19;6.95;;;4.18;;
18445;SDS011;9352;50.888;4.466;2023-05-07T09:18:48;9.48;;;4.30;;
18445;SDS011;9352;50.888;4.466;2023-05-07T09:21:18;6.38;;;4.05;;
18445;SDS011;9352;50.888;4.466;2023-05-07T09:23:45;8.30;;;4.20;;
18445;SDS011;9352;50.888;4.466;2023-05-07T09:26:15;6.53;;;4.28;;
18445;SDS011;9352;50.888;4.466;2023-05-07T09:28:42;8.27;;;4.00;;
18445;SDS011;9352;50.888;4.466;2023-05-07T09:31:09;12.15;;;3.97;;
18445;SDS011;9352;50.888;4.466;2023-05-07T09:33:36;10.48;;;4.03;;
18445;SDS011;9352;50.888;4.466;2023-05-07T09:36:04;7.15;;;3.40;;
18445;SDS011;9352;50.888;4.466;2023-05-07T09:38:32;8.13;;;3.97;;
18445;SDS011;9352;50.888;4.466;2023-05-07T09:41:03;11.18;;;4.32;;
18445;SDS011;9352;50.888;4.466;2023-05-07T09:43:35;10.27;;;4.30;;
18445;SDS011;9352;50.888;4.466;2023-05-07T09:46:06;9.77;;;4.20;;
18445;SDS011;9352;50.888;4.466;2023-05-07T09:48:37;10.13;;;3.90;;
18445;SDS011;9352;50.888;4.466;2023-05-07T09:51:06;11.20;;;4.38;;
18445;SDS011;9352;50.888;4.466;2023-05-07T09:53:44;7.38;;;3.60;;
18445;SDS011;9352;50.888;4.466;2023-05-07T09:56:12;9.80;;;3.53;;
18445;SDS011;9352;50.888;4.466;2023-05-07T09:58:42;7.53;;;3.72;;
18445;SDS011;9352;50.888;4.466;2023-05-07T10:01:11;9.27;;;4.32;;
18445;SDS011;9352;50.888;4.466;2023-05-07T10:03:39;7.78;;;4.00;;
18445;SDS011;9352;50.888;4.466;2023-05-07T10:06:08;9.40;;;3.47;;
18445;SDS011;9352;50.888;4.466;2023-05-07T10:08:35;8.82;;;4.45;;
18445;SDS011;9352;50.888;4.466;2023-05-07T10:11:03;8.30;;;4.40;;
18445;SDS011;9352;50.888;4.466;2023-05-07T10:13:30;8.20;;;4.18;;
18445;SDS011;9352;50.888;4.466;2023-05-07T10:15:59;10.60;;;4.40;;
18445;SDS011;9352;50.888;4.466;2023-05-07T10:18:27;7.60;;;4.10;;
18445;SDS011;9352;50.888;4.466;2023-05-07T10:20:58;8.88;;;4.40;;
18445;SDS011;9352;50.888;4.466;2023-05-07T10:23:31;6.65;;;4.22;;
18445;SDS011;9352;50.888;4.466;2023-05-07T10:25:59;9.00;;;5.15;;
18445;SDS011;9352;50.888;4.466;2023-05-07T10:28:30;7.03;;;4.75;;
18445;SDS011;9352;50.888;4.466;2023-05-07T10:31:03;9.63;;;5.32;;
18445;SDS011;9352;50.888;4.466;2023-05-07T10:33:46;9.13;;;4.60;;
18445;SDS011;9352;50.888;4.466;2023-05-07T10:36:15;4.18;;;3.60;;
18445;SDS011;9352;50.888;4.466;2023-05-07T10:38:42;5.50;;;3.30;;
18445;SDS011;9352;50.888;4.466;2023-05-07T10:41:10;7.00;;;3.08;;
18445;SDS011;9352;50.888;4.466;2023-05-07T10:43:38;5.18;;;2.83;;
18445;SDS011;9352;50.888;4.466;2023-05-07T10:46:11;6.30;;;3.20;;
18445;SDS011;9352;50.888;4.466;2023-05-07T10:51:38;7.78;;;3.33;;
18445;SDS011;9352;50.888;4.466;2023-05-07T10:54:21;14.55;;;5.47;;
18445;SDS011;9352;50.888;4.466;2023-05-07T10:56:50;3.95;;;3.22;;
18445;SDS011;9352;50.888;4.466;2023-05-07T11:02:12;4.40;;;2.58;;
18445;SDS011;9352;50.888;4.466;2023-05-07T11:04:40;7.03;;;3.00;;
18445;SDS011;9352;50.888;4.466;2023-05-07T11:10:02;6.40;;;3.08;;
18445;SDS011;9352;50.888;4.466;2023-05-07T11:12:49;4.25;;;2.88;;
18445;SDS011;9352;50.888;4.466;2023-05-07T11:15:33;7.15;;;3.40;;
18445;SDS011;9352;50.888;4.466;2023-05-07T11:18:06;7.07;;;3.25;;
18445;SDS011;9352;50.888;4.466;2023-05-07T11:20:45;5.95;;;3.13;;
18445;SDS011;9352;50.888;4.466;2023-05-07T11:26:43;5.45;;;2.22;;
18445;SDS011;9352;50.888;4.466;2023-05-07T11:29:12;6.20;;;2.72;;
18445;SDS011;9352;50.888;4.466;2023-05-07T11:31:40;4.63;;;2.90;;
18445;SDS011;9352;50.888;4.466;2023-05-07T11:34:08;5.30;;;2.90;;
18445;SDS011;9352;50.888;4.466;2023-05-07T11:36:36;4.43;;;2.55;;
18445;SDS011;9352;50.888;4.466;2023-05-07T11:39:22;4.72;;;2.40;;
18445;SDS011;9352;50.888;4.466;2023-05-07T11:41:51;8.48;;;2.80;;
18445;SDS011;9352;50.888;4.466;2023-05-07T11:44:17;4.13;;;2.85;;
18445;SDS011;9352;50.888;4.466;2023-05-07T11:46:44;5.53;;;2.88;;
18445;SDS011;9352;50.888;4.466;2023-05-07T11:49:13;5.97;;;3.03;;
18445;SDS011;9352;50.888;4.466;2023-05-07T11:51:40;5.70;;;3.03;;
18445;SDS011;9352;50.888;4.466;2023-05-07T11:54:08;8.10;;;3.20;;
18445;SDS011;9352;50.888;4.466;2023-05-07T11:56:36;4.45;;;2.92;;
18445;SDS011;9352;50.888;4.466;2023-05-07T11:59:04;5.53;;;2.90;;
18445;SDS011;9352;50.888;4.466;2023-05-07T12:01:31;3.30;;;3.03;;
18445;SDS011;9352;50.888;4.466;2023-05-07T12:03:58;4.30;;;2.67;;
18445;SDS011;9352;50.888;4.466;2023-05-07T12:06:30;5.93;;;2.78;;
18445;SDS011;9352;50.888;4.466;2023-05-07T12:08:57;4.03;;;2.83;;
18445;SDS011;9352;50.888;4.466;2023-05-07T12:11:24;4.28;;;2.53;;
18445;SDS011;9352;50.888;4.466;2023-05-07T12:13:51;7.53;;;2.78;;
18445;SDS011;9352;50.888;4.466;2023-05-07T12:16:20;6.88;;;2.85;;
18445;SDS011;9352;50.888;4.466;2023-05-07T12:18:47;7.15;;;3.00;;
18445;SDS011;9352;50.888;4.466;2023-05-07T12:21:15;4.55;;;2.75;;
18445;SDS011;9352;50.888;4.466;2023-05-07T12:23:44;4.05;;;2.45;;
18445;SDS011;9352;50.888;4.466;2023-05-07T12:26:11;6.88;;;2.95;;
18445;SDS011;9352;50.888;4.466;2023-05-07T12:28:38;6.15;;;2.63;;
18445;SDS011;9352;50.888;4.466;2023-05-07T12:31:05;3.13;;;2.75;;
18445;SDS011;9352;50.888;4.466;2023-05-07T12:33:33;4.10;;;2.30;;
18445;SDS011;9352;50.888;4.466;2023-05-07T12:36:03;2.90;;;2.30;;
18445;SDS011;9352;50.888;4.466;2023-05-07T12:38:35;3.63;;;2.25;;
18445;SDS011;9352;50.888;4.466;2023-05-07T12:41:04;3.53;;;2.55;;
18445;SDS011;9352;50.888;4.466;2023-05-07T12:43:32;3.83;;;2.33;;
18445;SDS011;9352;50.888;4.466;2023-05-07T12:45:59;3.38;;;2.38;;
18445;SDS011;9352;50.888;4.466;2023-05-07T12:48:28;2.58;;;1.98;;
18445;SDS011;9352;50.888;4.466;2023-05-07T12:50:55;4.35;;;2.40;;
18445;SDS011;9352;50.888;4.466;2023-05-07T12:53:23;2.97;;;2.20;;
18445;SDS011;9352;50.888;4.466;2023-05-07T12:55:52;2.72;;;2.30;;
18445;SDS011;9352;50.888;4.466;2023-05-07T12:58:23;3.85;;;2.20;;
18445;SDS011;9352;50.888;4.466;2023-05-07T13:00:51;2.63;;;2.42;;
18445;SDS011;9352;50.888;4.466;2023-05-07T13:03:22;2.88;;;2.30;;
18445;SDS011;9352;50.888;4.466;2023-05-07T13:05:51;2.80;;;2.25;;
18445;SDS011;9352;50.888;4.466;2023-05-07T13:08:25;5.35;;;2.33;;
18445;SDS011;9352;50.888;4.466;2023-05-07T13:10:56;3.85;;;2.28;;
18445;SDS011;9352;50.888;4.466;2023-05-07T13:13:25;3.50;;;2.50;;
18445;SDS011;9352;50.888;4.466;2023-05-07T13:15:52;3.97;;;2.67;;
18445;SDS011;9352;50.888;4.466;2023-05-07T13:18:19;4.47;;;2.30;;
18445;SDS011;9352;50.888;4.466;2023-05-07T13:20:46;5.80;;;2.38;;
18445;SDS011;9352;50.888;4.466;2023-05-07T13:23:12;3.17;;;2.10;;
18445;SDS011;9352;50.888;4.466;2023-05-07T13:25:39;2.58;;;1.95;;
18445;SDS011;9352;50.888;4.466;2023-05-07T13:28:06;4.78;;;2.45;;
18445;SDS011;9352;50.888;4.466;2023-05-07T13:30:34;2.88;;;2.28;;
18445;SDS011;9352;50.888;4.466;2023-05-07T13:33:01;2.38;;;2.17;;
18445;SDS011;9352;50.888;4.466;2023-05-07T13:35:28;3.70;;;2.33;;
18445;SDS011;9352;50.888;4.466;2023-05-07T13:37:55;2.38;;;2.28;;
18445;SDS011;9352;50.888;4.466;2023-05-07T13:40:22;3.72;;;2.28;;
18445;SDS011;9352;50.888;4.466;2023-05-07T13:42:49;2.70;;;2.45;;
18445;SDS011;9352;50.888;4.466;2023-05-07T13:45:17;4.07;;;2.80;;
18445;SDS011;9352;50.888;4.466;2023-05-07T13:47:45;5.53;;;3.00;;
18445;SDS011;9352;50.888;4.466;2023-05-07T13:50:14;3.45;;;3.15;;
18445;SDS011;9352;50.888;4.466;2023-05-07T13:52:42;3.22;;;3.00;;
18445;SDS011;9352;50.888;4.466;2023-05-07T13:55:11;5.60;;;3.35;;
18445;SDS011;9352;50.888;4.466;2023-05-07T13:57:37;3.58;;;3.28;;
18445;SDS011;9352;50.888;4.466;2023-05-07T14:00:05;4.70;;;3.38;;
18445;SDS011;9352;50.888;4.466;2023-05-07T14:02:33;3.80;;;3.20;;
18445;SDS011;9352;50.888;4.466;2023-05-07T14:05:01;4.07;;;3.78;;
18445;SDS011;9352;50.888;4.466;2023-05-07T14:07:28;5.40;;;3.90;;
18445;SDS011;9352;50.888;4.466;2023-05-07T14:09:56;6.03;;;3.88;;
18445;SDS011;9352;50.888;4.466;2023-05-07T14:12:23;7.22;;;4.25;;
18445;SDS011;9352;50.888;4.466;2023-05-07T14:14:50;7.35;;;4.68;;
18445;SDS011;9352;50.888;4.466;2023-05-07T14:17:17;12.52;;;6.10;;
18445;SDS011;9352;50.888;4.466;2023-05-07T14:19:45;8.18;;;5.47;;
18445;SDS011;9352;50.888;4.466;2023-05-07T14:22:14;8.00;;;5.95;;
18445;SDS011;9352;50.888;4.466;2023-05-07T14:24:41;14.40;;;5.40;;
18445;SDS011;9352;50.888;4.466;2023-05-07T14:27:08;6.53;;;5.93;;
18445;SDS011;9352;50.888;4.466;2023-05-07T14:29:34;9.57;;;7.20;;
18445;SDS011;9352;50.888;4.466;2023-05-07T14:32:01;9.98;;;7.78;;
18445;SDS011;9352;50.888;4.466;2023-05-07T14:34:29;10.10;;;7.80;;
18445;SDS011;9352;50.888;4.466;2023-05-07T14:36:56;14.13;;;8.35;;
18445;SDS011;9352;50.888;4.466;2023-05-07T14:39:24;12.30;;;9.50;;
18445;SDS011;9352;50.888;4.466;2023-05-07T14:41:51;13.93;;;9.27;;
18445;SDS011;9352;50.888;4.466;2023-05-07T14:44:19;13.05;;;8.38;;
18445;SDS011;9352;50.888;4.466;2023-05-07T14:46:46;10.32;;;8.88;;
18445;SDS011;9352;50.888;4.466;2023-05-07T14:49:13;8.88;;;7.70;;
18445;SDS011;9352;50.888;4.466;2023-05-07T14:51:42;9.82;;;7.90;;
18445;SDS011;9352;50.888;4.466;2023-05-07T14:54:10;9.27;;;8.38;;
18445;SDS011;9352;50.888;4.466;2023-05-07T14:56:38;10.77;;;8.20;;
18445;SDS011;9352;50.888;4.466;2023-05-07T14:59:05;9.35;;;8.07;;
18445;SDS011;9352;50.888;4.466;2023-05-07T15:01:33;8.43;;;7.60;;
18445;SDS011;9352;50.888;4.466;2023-05-07T15:04:01;10.10;;;7.85;;
18445;SDS011;9352;50.888;4.466;2023-05-07T15:06:29;10.85;;;7.60;;
18445;SDS011;9352;50.888;4.466;2023-05-07T15:08:56;8.35;;;7.57;;
18445;SDS011;9352;50.888;4.466;2023-05-07T15:11:23;7.82;;;7.00;;